Time;durP1;ratioP1;P1;durP2;ratioP2;P2;SDS_P1;SDS_P2;PMS_P1;PMS_P2;Temp;Humidity;BMP_temperature;BMP_pressure;BME280_temperature;BME280_humidity;BME280_pressure;Samples;Min_cycle;Max_cycle;Signal;HPM_P1;HPM_P2
2022/05/07 00:00:01;;;;;;;46.20;32.30;;;;;;;11.67;60.07;101108.87;110681;1252;23048;-75
2022/05/07 00:02:53;;;;;;;;;;;;;;;11.62;60.24;101107.05;110739;1250;21949;-76
2022/05/07 00:05:22;;;;;;;58.70;36.80;;;;;;;11.53;60.56;101107.66;110803;1250;21968;-75
2022/05/07 00:07:51;;;;;;;52.80;35.30;;;;;;;11.49;60.64;101107.34;110535;1252;22981;-76
2022/05/07 00:10:20;;;;;;;56.70;35.40;;;;;;;11.47;60.56;101104.04;110519;1253;23735;-75
2022/05/07 00:12:50;;;;;;;54.90;35.50;;;;;;;11.43;60.50;101102.79;110561;1252;21979;-75
2022/05/07 00:15:19;;;;;;;57.30;34.60;;;;;;;11.41;60.65;101097.95;110480;1252;23557;-76
2022/05/07 00:18:06;;;;;;;52.00;31.10;;;;;;;11.40;60.95;101098.54;110491;1252;22019;-75
2022/05/07 00:20:36;;;;;;;48.10;30.20;;;;;;;11.39;60.99;101097.23;110723;1252;22981;-76
2022/05/07 00:23:05;;;;;;;46.30;29.30;;;;;;;11.38;61.03;101096.80;110562;1252;21960;-75
2022/05/07 00:25:34;;;;;;;71.80;34.70;;;;;;;11.37;60.92;101094.83;110662;1253;21976;-76
2022/05/07 00:28:04;;;;;;;66.20;35.60;;;;;;;11.33;60.88;101098.23;110722;1252;23561;-75
2022/05/07 00:30:33;;;;;;;52.30;31.80;;;;;;;11.27;60.90;101098.57;110581;1252;22419;-74
2022/05/07 00:33:02;;;;;;;54.50;32.90;;;;;;;11.21;60.92;101096.05;110461;1253;21986;-76
2022/05/07 00:35:31;;;;;;;58.40;30.70;;;;;;;11.16;61.09;101092.87;110132;1259;22074;-75
2022/05/07 00:38:01;;;;;;;46.80;29.40;;;;;;;11.11;61.24;101094.36;110224;1257;23592;-76
2022/05/07 00:40:30;;;;;;;53.30;31.50;;;;;;;11.07;61.26;101098.83;110114;1258;22030;-75
2022/05/07 00:42:59;;;;;;;42.00;29.90;;;;;;;11.04;61.39;101096.15;109433;1264;22427;-76
2022/05/07 00:45:29;;;;;;;48.30;29.60;;;;;;;11.01;61.51;101094.64;109280;1263;22338;-75
2022/05/07 00:47:59;;;;;;;48.30;29.60;;;;;;;10.99;61.55;101092.57;109747;1262;21975;-75
2022/05/07 00:53:15;;;;;;;47.70;31.50;;;;;;;10.91;61.57;101087.22;109569;1263;21989;-75
2022/05/07 00:55:44;;;;;;;46.50;29.80;;;;;;;10.86;61.68;101085.95;109346;1264;23045;-76
2022/05/07 00:58:17;;;;;;;45.70;29.70;;;;;;;10.81;61.82;101087.49;109517;1264;21989;-76
2022/05/07 01:00:46;;;;;;;43.80;30.10;;;;;;;10.76;61.98;101089.55;109703;1255;22041;-76
2022/05/07 01:03:16;;;;;;;39.00;29.80;;;;;;;10.71;62.00;101084.61;110751;1252;22086;-76
2022/05/07 01:05:45;;;;;;;44.70;32.40;;;;;;;10.67;61.95;101081.67;110492;1252;22036;-76
2022/05/07 01:08:16;;;;;;;44.10;30.00;;;;;;;10.62;62.08;101080.15;110534;1252;22099;-76
2022/05/07 01:10:46;;;;;;;37.30;30.20;;;;;;;10.62;62.36;101083.23;110827;1251;23577;-75
2022/05/07 01:13:17;;;;;;;46.40;30.40;;;;;;;10.65;62.60;101079.20;110565;1252;23589;-75
2022/05/07 01:15:54;;;;;;;50.50;30.50;;;;;;;10.64;62.50;101075.60;110565;1251;23107;-76
2022/05/07 01:18:25;;;;;;;49.40;30.60;;;;;;;10.61;62.41;101075.67;110502;1251;23590;-74
2022/05/07 01:20:58;;;;;;;46.60;30.40;;;;;;;10.57;62.56;101076.59;110643;1253;23451;-76
2022/05/07 01:23:27;;;;;;;46.40;31.20;;;;;;;10.55;62.70;101071.42;110530;1254;23055;-75
2022/05/07 01:25:59;;;;;;;43.70;29.70;;;;;;;10.52;62.66;101070.92;110439;1254;23609;-75
2022/05/07 01:28:30;;;;;;;43.40;30.80;;;;;;;10.48;62.66;101077.20;110521;1253;23414;-74
2022/05/07 01:31:00;;;;;;;41.60;31.50;;;;;;;10.44;62.64;101075.97;110406;1255;23614;-74
2022/05/07 01:33:33;;;;;;;39.80;29.10;;;;;;;10.41;62.68;101077.31;110152;1258;23138;-76
2022/05/07 01:36:16;;;;;;;45.70;29.50;;;;;;;10.39;62.86;101076.64;110323;1255;23776;-76
2022/05/07 01:38:47;;;;;;;39.30;30.40;;;;;;;10.38;63.01;101079.76;110291;1255;23049;-76
2022/05/07 01:41:16;;;;;;;52.10;31.50;;;;;;;10.37;62.98;101081.07;110184;1257;23672;-76
2022/05/07 01:43:46;;;;;;;40.30;30.00;;;;;;;10.32;62.96;101082.38;110313;1255;23069;-75
2022/05/07 01:49:06;;;;;;;41.10;31.20;;;;;;;10.22;63.34;101078.20;110332;1253;22016;-76
2022/05/07 01:51:35;;;;;;;48.80;30.70;;;;;;;10.19;63.60;101076.21;110640;1252;23778;-75
2022/05/07 01:54:05;;;;;;;41.20;28.70;;;;;;;10.20;63.77;101076.65;110580;1252;23673;-76
2022/05/07 01:56:34;;;;;;;48.10;32.10;;;;;;;10.20;63.81;101075.83;110498;1252;22827;-75
2022/05/07 01:59:03;;;;;;;43.10;30.30;;;;;;;10.20;63.77;101073.19;110523;1252;23699;-77
2022/05/07 02:01:32;;;;;;;50.60;31.40;;;;;;;10.18;63.66;101075.27;110540;1252;22571;-75
2022/05/07 02:04:01;;;;;;;47.60;30.50;;;;;;;10.15;63.66;101073.07;110327;1256;22090;-75
2022/05/07 02:06:31;;;;;;;41.10;31.40;;;;;;;10.12;63.55;101074.05;110409;1256;21962;-76
2022/05/07 02:09:00;;;;;;;41.70;29.90;;;;;;;10.10;63.66;101080.30;110504;1255;21972;-75
2022/05/07 02:11:31;;;;;;;37.70;29.80;;;;;;;10.07;63.81;101077.73;110037;1256;21928;-75
2022/05/07 02:14:01;;;;;;;43.60;32.30;;;;;;;10.03;63.79;101078.10;110389;1256;22749;-75
2022/05/07 02:16:31;;;;;;;37.40;29.20;;;;;;;9.98;63.78;101078.30;110339;1256;22733;-76
2022/05/07 02:19:00;;;;;;;38.50;30.90;;;;;;;9.91;63.84;101077.52;110469;1255;21970;-75
2022/05/07 02:21:29;;;;;;;37.90;30.60;;;;;;;9.84;63.88;101076.94;110485;1253;21996;-76
2022/05/07 02:23:58;;;;;;;40.30;31.30;;;;;;;9.79;63.94;101080.38;110664;1253;23089;-76
2022/05/07 02:26:28;;;;;;;37.10;29.40;;;;;;;9.75;64.21;101082.13;110574;1252;22027;-75
2022/05/07 02:29:00;;;;;;;42.70;31.30;;;;;;;9.73;64.31;101080.26;110529;1252;23052;-75
2022/05/07 02:31:30;;;;;;;36.00;28.50;;;;;;;9.70;64.43;101080.55;110699;1252;23644;-75
2022/05/07 02:33:59;;;;;;;38.10;27.90;;;;;;;9.69;64.53;101080.14;110674;1252;21975;-76
2022/05/07 02:36:31;;;;;;;30.90;26.30;;;;;;;9.64;64.52;101078.98;110666;1252;21953;-76
2022/05/07 02:39:00;;;;;;;35.00;27.30;;;;;;;9.62;64.65;101077.99;110490;1254;22055;-76
2022/05/07 02:44:16;;;;;;;31.50;26.20;;;;;;;9.57;64.86;101080.84;110702;1252;23668;-76
2022/05/07 02:46:45;;;;;;;31.80;26.50;;;;;;;9.55;65.05;101081.73;110502;1252;23062;-76
2022/05/07 02:49:15;;;;;;;31.60;26.40;;;;;;;9.55;65.06;101081.20;110638;1252;23008;-76
2022/05/07 02:51:45;;;;;;;32.10;25.20;;;;;;;9.54;65.19;101083.82;110449;1252;21966;-76
2022/05/07 02:54:14;;;;;;;34.20;27.70;;;;;;;9.52;65.18;101082.39;109985;1260;22422;-76
2022/05/07 02:56:44;;;;;;;37.20;27.20;;;;;;;9.50;65.22;101081.34;109547;1262;21964;-75
2022/05/07 02:59:13;;;;;;;46.00;28.80;;;;;;;9.48;65.34;101086.67;109574;1261;21970;-77
2022/05/07 03:01:42;;;;;;;39.30;28.10;;;;;;;9.45;65.55;101093.64;109574;1262;21979;-76
2022/05/07 03:04:11;;;;;;;41.40;29.40;;;;;;;9.40;65.62;101091.40;109566;1261;21966;-76
2022/05/07 03:06:41;;;;;;;41.50;29.70;;;;;;;9.35;65.67;101089.91;109569;1262;21981;-76
2022/05/07 03:09:10;;;;;;;38.40;28.50;;;;;;;9.33;65.65;101089.98;109329;1261;21965;-76
2022/05/07 03:11:39;;;;;;;40.60;30.70;;;;;;;9.30;65.77;101090.75;108974;1261;21981;-75
2022/05/07 03:14:09;;;;;;;46.80;32.40;;;;;;;9.30;65.93;101093.98;109789;1258;21967;-75
2022/05/07 03:16:38;;;;;;;47.60;31.90;;;;;;;9.30;66.05;101091.84;109965;1257;21974;-77
2022/05/07 03:19:08;;;;;;;50.20;30.80;;;;;;;9.29;66.04;101093.50;110382;1255;22944;-75
2022/05/07 03:21:38;;;;;;;42.00;32.30;;;;;;;9.29;66.20;101092.32;110304;1258;22928;-75
2022/05/07 03:24:07;;;;;;;50.80;34.60;;;;;;;9.27;66.20;101093.30;109786;1261;22744;-76
2022/05/07 03:26:37;;;;;;;40.40;30.10;;;;;;;9.24;66.24;101097.45;109640;1261;22806;-78
2022/05/07 03:29:06;;;;;;;43.50;32.60;;;;;;;9.23;66.35;101097.23;109596;1261;21959;-76
2022/05/07 03:31:39;;;;;;;41.80;32.60;;;;;;;9.24;66.49;101099.11;110128;1259;21968;-76
2022/05/07 03:34:09;;;;;;;43.80;30.50;;;;;;;9.25;66.61;101100.89;110269;1258;22072;-76
2022/05/07 03:36:39;;;;;;;40.30;30.90;;;;;;;9.26;66.56;101105.23;110265;1258;22340;-75
2022/05/07 03:39:09;;;;;;;43.40;31.80;;;;;;;9.26;66.72;101105.77;109969;1258;21972;-74
2022/05/07 03:41:40;;;;;;;43.50;32.90;;;;;;;9.27;66.81;101106.18;110035;1252;23592;-74
2022/05/07 03:44:10;;;;;;;48.70;33.30;;;;;;;9.29;66.79;101106.88;110469;1255;23131;-76
2022/05/07 03:46:39;;;;;;;42.10;30.80;;;;;;;9.31;66.75;101107.16;110548;1253;23673;-77
2022/05/07 03:49:09;;;;;;;39.10;30.30;;;;;;;9.32;66.56;101110.40;110661;1252;23098;-76
2022/05/07 03:54:27;;;;;;;45.60;31.80;;;;;;;9.39;66.83;101113.30;110553;1252;23568;-76
2022/05/07 03:57:00;;;;;;;48.40;31.50;;;;;;;9.46;66.97;101113.94;110525;1252;21961;-75
2022/05/07 03:59:34;;;;;;;41.10;30.50;;;;;;;9.53;67.07;101115.39;109973;1260;23035;-74
2022/05/07 04:02:04;;;;;;;38.00;29.80;;;;;;;9.59;66.98;101117.25;110297;1257;22018;-75
2022/05/07 04:04:44;;;;;;;37.40;31.00;;;;;;;9.65;66.77;101119.86;110166;1258;21973;-75
2022/05/07 04:07:14;;;;;;;39.60;33.00;;;;;;;9.64;66.36;101119.98;110022;1258;22767;-75
2022/05/07 04:09:54;;;;;;;42.40;30.30;;;;;;;9.59;66.28;101124.59;109774;1263;23106;-75
2022/05/07 04:12:26;;;;;;;46.90;33.00;;;;;;;9.57;66.25;101126.46;109757;1260;23056;-75
2022/05/07 04:15:00;;;;;;;;;;;;;;;9.59;66.53;101127.32;109701;1262;23133;-74
2022/05/07 04:17:30;;;;;;;40.00;30.50;;;;;;;9.56;66.77;101126.52;109924;1258;21982;-75
2022/05/07 04:19:59;;;;;;;42.50;31.10;;;;;;;9.63;67.03;101126.20;110360;1256;21958;-75
2022/05/07 04:22:35;;;;;;;62.60;34.50;;;;;;;9.78;67.25;101124.59;110460;1255;22731;-75
2022/05/07 04:25:13;;;;;;;51.10;32.90;;;;;;;9.94;67.17;101127.18;110373;1256;21968;-75
2022/05/07 04:27:44;;;;;;;45.40;31.20;;;;;;;10.07;66.87;101127.88;110494;1253;21968;-75
2022/05/07 04:30:14;;;;;;;40.80;31.00;;;;;;;10.23;66.77;101129.74;110545;1253;21954;-76
2022/05/07 04:32:44;;;;;;;44.90;32.30;;;;;;;10.35;66.29;101131.98;110619;1252;21955;-75
2022/05/07 04:35:13;;;;;;;40.00;31.30;;;;;;;10.49;66.33;101130.12;110485;1252;23743;-75
2022/05/07 04:37:42;;;;;;;43.90;31.40;;;;;;;10.61;65.88;101129.77;110321;1255;21984;-75
2022/05/07 04:40:13;;;;;;;43.00;31.50;;;;;;;10.71;65.52;101132.02;110433;1256;23024;-75
2022/05/07 04:42:46;;;;;;;;;;;;;;;10.80;65.34;101138.09;110373;1256;21976;-76
2022/05/07 04:45:15;;;;;;;38.10;28.90;;;;;;;10.79;65.08;101134.67;110396;1256;21982;-75
2022/05/07 04:47:49;;;;;;;40.50;32.20;;;;;;;10.81;64.81;101136.27;110349;1256;23146;-76
2022/05/07 04:50:23;;;;;;;59.60;52.60;;;;;;;10.90;64.79;101133.81;110409;1253;22915;-76
2022/05/07 04:52:57;;;;;;;46.90;35.20;;;;;;;11.07;64.97;101135.66;110530;1254;23038;-77
2022/05/07 04:55:26;;;;;;;39.30;29.40;;;;;;;11.26;64.66;101133.05;110562;1250;21966;-77
2022/05/07 04:57:56;;;;;;;49.30;32.70;;;;;;;11.42;64.15;101135.92;111036;1251;23442;-77
2022/05/07 05:00:29;;;;;;;42.40;32.40;;;;;;;11.60;64.20;101136.33;111058;1250;22004;-77
2022/05/07 05:03:07;;;;;;;41.70;31.80;;;;;;;11.86;64.37;101136.44;111035;1250;22273;-78
2022/05/07 05:05:39;;;;;;;42.70;32.40;;;;;;;12.07;63.50;101143.38;111010;1253;23632;-76
2022/05/07 05:08:14;;;;;;;40.60;30.20;;;;;;;12.23;62.75;101145.27;110971;1250;21962;-78
2022/05/07 05:10:44;;;;;;;41.20;31.70;;;;;;;12.43;62.75;101142.02;111024;1250;21953;-76
2022/05/07 05:13:14;;;;;;;35.10;30.20;;;;;;;12.69;62.76;101145.38;110813;1250;22062;-77
2022/05/07 05:15:51;;;;;;;40.60;31.40;;;;;;;13.00;62.25;101143.52;111015;1250;22013;-76
2022/05/07 05:18:35;;;;;;;35.00;29.10;;;;;;;13.29;61.38;101146.23;110739;1254;23706;-75
2022/05/07 05:21:05;;;;;;;36.30;29.00;;;;;;;13.59;60.80;101150.30;110848;1253;23071;-76
2022/05/07 05:24:02;;;;;;;34.10;28.50;;;;;;;13.94;60.33;101147.32;110512;1253;21963;-77
2022/05/07 05:26:33;;;;;;;36.30;28.50;;;;;;;14.27;59.64;101143.02;110627;1254;23764;-76
2022/05/07 05:29:05;;;;;;;36.10;29.10;;;;;;;14.58;58.68;101139.98;110658;1253;23738;-76
2022/05/07 05:31:35;;;;;;;37.80;27.90;;;;;;;14.90;58.09;101144.27;110558;1253;22836;-76
2022/05/07 05:34:11;;;;;;;34.70;28.10;;;;;;;15.24;57.31;101147.80;110575;1254;24264;-76
2022/05/07 05:36:46;;;;;;;30.20;25.70;;;;;;;15.56;56.37;101146.72;110360;1256;23056;-76
2022/05/07 05:39:16;;;;;;;32.40;27.10;;;;;;;15.87;55.24;101149.66;110428;1256;24283;-75
2022/05/07 05:41:45;;;;;;;32.10;26.80;;;;;;;16.18;54.82;101152.06;110572;1254;23773;-77
2022/05/07 05:44:15;;;;;;;29.90;26.50;;;;;;;16.53;54.11;101151.45;110612;1253;21993;-76
2022/05/07 05:46:45;;;;;;;30.40;26.70;;;;;;;16.90;53.27;101150.29;110663;1254;23097;-76
2022/05/07 05:49:14;;;;;;;29.90;23.20;;;;;;;17.22;52.32;101153.60;110784;1250;23716;-76
2022/05/07 05:51:45;;;;;;;27.50;23.20;;;;;;;17.56;51.69;101154.25;110733;1250;24458;-75
2022/05/07 05:54:14;;;;;;;24.80;20.80;;;;;;;17.90;50.65;101156.90;110616;1250;22034;-76
2022/05/07 05:56:44;;;;;;;23.20;18.60;;;;;;;18.11;48.91;101156.08;110886;1251;21966;-76
2022/05/07 05:59:13;;;;;;;22.00;18.40;;;;;;;18.28;48.38;101158.22;110729;1252;21972;-75
2022/05/07 06:01:50;;;;;;;30.20;19.50;;;;;;;18.50;47.76;101163.45;110699;1253;21955;-75
2022/05/07 06:04:28;;;;;;;22.90;19.70;;;;;;;18.75;47.20;101165.38;110771;1251;23121;-76
2022/05/07 06:07:03;;;;;;;19.70;16.60;;;;;;;19.06;46.90;101163.51;110673;1253;21969;-76
2022/05/07 06:09:35;;;;;;;23.10;18.00;;;;;;;19.33;45.92;101168.48;110528;1251;22264;-75
2022/05/07 06:12:06;;;;;;;20.60;16.40;;;;;;;19.54;45.31;101168.44;110613;1251;23023;-75
2022/05/07 06:14:35;;;;;;;27.20;17.70;;;;;;;19.77;44.75;101168.61;110675;1250;22032;-75
2022/05/07 06:17:05;;;;;;;18.90;15.60;;;;;;;20.01;44.25;101169.07;110736;1252;22395;-75
2022/05/07 06:19:35;;;;;;;20.90;16.40;;;;;;;20.32;44.06;101171.52;110662;1250;21961;-77
2022/05/07 06:22:04;;;;;;;20.00;15.30;;;;;;;20.64;42.93;101172.04;110682;1253;21996;-76
2022/05/07 06:27:31;;;;;;;17.20;12.60;;;;;;;21.17;41.81;101174.03;110919;1250;21962;-75
2022/05/07 06:30:09;;;;;;;17.40;12.40;;;;;;;21.43;41.24;101171.75;110753;1250;21960;-76
2022/05/07 06:32:50;;;;;;;15.40;11.20;;;;;;;21.66;40.28;101170.65;110694;1250;23661;-75
2022/05/07 06:35:21;;;;;;;12.20;10.90;;;;;;;21.77;39.26;101171.02;110770;1250;23050;-75
2022/05/07 06:37:59;;;;;;;15.90;11.00;;;;;;;21.83;39.07;101172.42;110137;1259;21975;-76
2022/05/07 06:40:28;;;;;;;14.10;11.30;;;;;;;22.01;39.10;101173.73;110426;1256;22026;-77
2022/05/07 06:42:57;;;;;;;12.30;11.10;;;;;;;22.33;39.25;101176.87;110558;1256;22337;-77
2022/05/07 06:45:40;;;;;;;12.90;8.80;;;;;;;22.69;37.98;101176.02;110521;1257;23721;-77
2022/05/07 06:48:11;;;;;;;15.30;9.50;;;;;;;22.91;37.39;101175.13;110336;1256;254307;-77
2022/05/07 06:50:41;;;;;;;11.80;8.60;;;;;;;23.13;37.08;101175.02;109862;1262;22761;-77
2022/05/07 06:53:11;;;;;;;13.10;9.20;;;;;;;23.38;36.49;101174.14;109977;1262;21926;-76
2022/05/07 06:55:55;;;;;;;10.50;8.60;;;;;;;23.65;36.08;101174.73;109889;1260;21967;-76
2022/05/07 06:58:29;;;;;;;8.70;7.40;;;;;;;23.75;34.92;101175.52;109707;1261;21981;-76
2022/05/07 07:01:02;;;;;;;21.90;8.10;;;;;;;23.93;35.32;101174.36;109985;1261;21963;-74
2022/05/07 07:03:31;;;;;;;9.20;7.20;;;;;;;24.30;34.82;101175.47;110227;1257;23152;-76
2022/05/07 07:06:01;;;;;;;15.00;8.40;;;;;;;24.58;34.01;101178.36;110482;1255;22263;-76
2022/05/07 07:08:33;;;;;;;9.10;6.60;;;;;;;24.76;33.44;101178.72;110525;1250;22262;-76
2022/05/07 07:11:02;;;;;;;15.30;7.40;;;;;;;24.90;33.34;101177.66;110536;1253;23664;-76
2022/05/07 07:13:31;;;;;;;14.10;8.20;;;;;;;25.16;33.58;101177.83;110529;1253;23939;-76
2022/05/07 07:16:00;;;;;;;9.30;6.30;;;;;;;25.41;32.28;101180.23;110578;1251;22830;-76
2022/05/07 07:18:31;;;;;;;11.20;6.10;;;;;;;25.52;31.97;101177.69;110498;1251;23786;-75
2022/05/07 07:21:00;;;;;;;9.40;6.50;;;;;;;25.61;31.68;101177.02;110035;1258;21994;-74
2022/05/07 07:23:30;;;;;;;8.60;4.70;;;;;;;25.68;31.24;101175.71;110045;1260;22087;-75
2022/05/07 07:25:59;;;;;;;8.30;5.00;;;;;;;25.84;31.37;101174.64;110199;1257;23600;-75
2022/05/07 07:28:28;;;;;;;13.70;6.80;;;;;;;26.03;30.49;101172.88;110030;1260;21960;-76
2022/05/07 07:31:01;;;;;;;8.20;6.00;;;;;;;26.14;30.33;101171.60;110185;1259;22391;-77
2022/05/07 07:33:31;;;;;;;15.50;6.70;;;;;;;26.35;30.49;101169.65;110021;1259;23714;-77
2022/05/07 07:36:00;;;;;;;10.80;5.60;;;;;;;26.57;29.89;101170.09;110293;1257;24286;-76
2022/05/07 07:38:29;;;;;;;10.50;5.70;;;;;;;26.76;29.23;101164.59;110364;1254;23618;-77
2022/05/07 07:40:58;;;;;;;8.00;5.80;;;;;;;26.97;28.83;101161.60;111048;1251;22023;-77
2022/05/07 07:43:27;;;;;;;9.40;6.30;;;;;;;27.14;28.29;101167.84;110951;1250;22969;-77
2022/05/07 07:48:46;;;;;;;63.50;6.80;;;;;;;26.96;28.18;101161.74;110732;1252;21958;-76
2022/05/07 07:51:18;;;;;;;9.10;4.40;;;;;;;27.05;28.32;101161.45;110590;1252;23768;-76
2022/05/07 07:53:47;;;;;;;7.70;4.20;;;;;;;27.22;28.06;101163.51;110640;1254;22454;-76
2022/05/07 07:56:18;;;;;;;5.10;3.20;;;;;;;27.30;27.36;101161.73;110333;1255;21966;-76
2022/05/07 07:58:47;;;;;;;8.80;4.10;;;;;;;27.41;27.23;101158.95;110528;1253;24335;-76
2022/05/07 08:01:16;;;;;;;6.60;4.10;;;;;;;27.51;26.84;101160.70;110792;1252;21955;-77
2022/05/07 08:03:45;;;;;;;5.20;4.00;;;;;;;27.55;26.43;101163.33;110455;1253;22544;-77
2022/05/07 08:06:14;;;;;;;11.50;5.00;;;;;;;27.50;26.21;101159.88;110515;1253;21987;-75
2022/05/07 08:11:50;;;;;;;6.40;3.80;;;;;;;27.67;26.21;101160.70;110721;1250;23686;-75
2022/05/07 08:14:19;;;;;;;3.70;2.20;;;;;;;27.62;25.92;101156.38;110720;1253;22017;-76
2022/05/07 08:16:48;;;;;;;5.10;3.00;;;;;;;27.41;25.00;101157.27;110460;1254;23659;-75
2022/05/07 08:19:18;;;;;;;7.90;3.50;;;;;;;26.92;25.45;101157.38;110626;1253;21977;-74
2022/05/07 08:21:47;;;;;;;6.30;2.90;;;;;;;26.79;26.60;101155.04;110670;1252;22169;-75
2022/05/07 08:24:17;;;;;;;4.90;3.00;;;;;;;26.91;26.79;101151.23;110601;1252;23422;-76
2022/05/07 08:26:46;;;;;;;8.10;3.40;;;;;;;26.96;26.58;101147.76;110671;1253;23026;-75
2022/05/07 08:29:15;;;;;;;3.60;2.90;;;;;;;27.03;26.25;101144.52;110538;1253;23061;-76
2022/05/07 08:31:44;;;;;;;4.70;2.40;;;;;;;27.09;25.77;101145.92;110550;1254;21975;-75
2022/05/07 08:34:13;;;;;;;4.70;2.40;;;;;;;27.18;25.56;101142.71;110499;1254;21966;-75
2022/05/07 08:36:42;;;;;;;7.00;2.40;;;;;;;27.20;25.67;101149.25;110423;1254;22735;-76
2022/05/07 08:39:11;;;;;;;5.80;4.90;;;;;;;27.38;25.37;101151.49;110403;1253;21999;-75
2022/05/07 08:41:40;;;;;;;3.50;2.70;;;;;;;27.42;25.05;101148.05;110528;1253;22019;-75
2022/05/07 08:44:13;;;;;;;5.50;2.60;;;;;;;27.45;24.84;101145.41;110450;1254;22258;-75
2022/05/07 08:46:42;;;;;;;4.20;2.20;;;;;;;27.52;24.83;101143.61;110679;1253;21963;-76
2022/05/07 08:49:12;;;;;;;5.40;2.20;;;;;;;27.67;24.89;101142.02;110550;1254;23035;-75
2022/05/07 08:51:42;;;;;;;6.70;2.10;;;;;;;27.86;24.80;101144.16;110637;1253;21959;-76
2022/05/07 08:54:13;;;;;;;4.50;1.90;;;;;;;28.04;24.23;101148.80;110577;1252;23025;-75
2022/05/07 08:56:42;;;;;;;4.30;2.20;;;;;;;28.19;24.19;101148.91;110578;1254;22193;-76
2022/05/07 08:59:11;;;;;;;3.00;1.50;;;;;;;28.28;24.29;101145.04;110780;1251;21970;-75
2022/05/07 09:01:42;;;;;;;4.30;1.70;;;;;;;28.46;24.06;101147.02;110546;1252;21961;-75
2022/05/07 09:04:11;;;;;;;5.10;1.80;;;;;;;28.64;23.89;101146.89;110717;1253;23728;-76
2022/05/07 09:06:40;;;;;;;11.70;2.30;;;;;;;28.80;23.30;101145.35;110793;1252;22764;-75
2022/05/07 09:09:09;;;;;;;3.30;1.60;;;;;;;28.70;22.48;101143.10;110519;1251;22009;-75
2022/05/07 09:11:42;;;;;;;2.30;1.20;;;;;;;28.41;22.71;101142.27;110574;1252;22273;-76
2022/05/07 09:14:11;;;;;;;4.40;1.40;;;;;;;28.40;22.95;101141.95;110708;1252;21959;-76
2022/05/07 09:16:49;;;;;;;5.30;1.70;;;;;;;28.59;23.41;101142.05;110691;1250;21968;-77
2022/05/07 09:19:30;;;;;;;2.10;1.20;;;;;;;28.87;22.86;101145.50;110664;1252;23636;-75
2022/05/07 09:22:08;;;;;;;5.30;1.50;;;;;;;29.08;22.80;101139.45;110680;1250;22011;-75
2022/05/07 09:24:38;;;;;;;4.40;1.50;;;;;;;29.26;22.50;101141.95;110682;1252;22000;-75
2022/05/07 09:27:15;;;;;;;;;;;;;;;29.02;21.87;101140.58;110830;1249;23658;-76
2022/05/07 09:29:44;;;;;;;2.40;1.20;;;;;;;28.42;22.02;101138.61;110608;1251;22014;-75
2022/05/07 09:32:13;;;;;;;3.10;1.70;;;;;;;28.03;22.48;101136.63;110803;1252;23566;-75
2022/05/07 09:37:41;;;;;;;2.60;1.60;;;;;;;28.18;23.87;101132.02;110607;1253;23664;-74
2022/05/07 09:40:11;;;;;;;2.90;1.90;;;;;;;28.46;23.49;101134.30;110693;1251;23728;-75
2022/05/07 09:42:42;;;;;;;5.00;1.70;;;;;;;28.62;22.88;101134.06;110795;1252;21956;-74
2022/05/07 09:45:11;;;;;;;4.30;1.30;;;;;;;28.68;22.62;101127.05;110562;1252;21970;-75
2022/05/07 09:47:40;;;;;;;4.10;2.00;;;;;;;28.72;22.27;101133.38;110348;1258;23174;-75
2022/05/07 09:58:33;;;;;;;4.00;2.10;;;;;;;28.75;21.77;101121.14;110429;1253;22080;-75
2022/05/07 10:01:51;;;;;;;4.20;1.70;;;;;;;28.84;22.24;101116.42;110220;1260;22054;-76
2022/05/07 10:04:38;;;;;;;2.70;1.90;;;;;;;29.13;22.19;101119.20;110492;1256;23659;-75
2022/05/07 10:07:42;;;;;;;2.90;2.10;;;;;;;29.23;21.99;101121.98;110556;1254;22138;-76
2022/05/07 10:10:30;;;;;;;3.80;2.10;;;;;;;29.22;21.83;101115.30;110674;1254;21957;-76
2022/05/07 10:13:02;;;;;;;3.90;2.00;;;;;;;29.19;21.65;101109.42;110557;1255;22005;-76
2022/05/07 10:15:32;;;;;;;2.60;1.20;;;;;;;29.18;21.67;101109.14;110263;1257;23641;-75
2022/05/07 10:18:07;;;;;;;5.00;1.90;;;;;;;29.17;21.77;101107.30;110361;1257;21971;-74
2022/05/07 10:20:47;;;;;;;9.80;2.40;;;;;;;29.17;21.92;101106.86;110342;1257;21971;-75
2022/05/07 10:23:32;;;;;;;5.80;1.60;;;;;;;28.88;21.27;101105.05;110236;1257;24280;-76
2022/05/07 10:26:04;;;;;;;2.20;1.60;;;;;;;28.36;21.42;101104.30;110238;1256;21971;-75
2022/05/07 10:28:41;;;;;;;5.30;1.90;;;;;;;27.80;21.71;101097.95;110238;1257;23078;-75
2022/05/07 10:31:25;;;;;;;7.20;2.20;;;;;;;27.19;21.99;101095.78;109749;1264;23593;-77
2022/05/07 10:33:55;;;;;;;3.90;1.90;;;;;;;26.62;22.85;101097.61;109764;1262;21983;-77
2022/05/07 10:36:37;;;;;;;4.00;1.90;;;;;;;26.24;23.48;101095.63;110440;1261;22039;-77
2022/05/07 10:39:08;;;;;;;5.40;1.70;;;;;;;25.94;24.33;101091.23;110248;1260;21987;-77
2022/05/07 10:41:47;;;;;;;4.60;1.30;;;;;;;25.87;24.62;101091.08;109942;1262;22684;-77
2022/05/07 10:44:34;;;;;;;3.30;1.60;;;;;;;25.82;25.08;101088.96;110139;1262;22302;-76
2022/05/07 10:47:18;;;;;;;4.60;1.40;;;;;;;25.86;25.09;101089.17;110097;1261;21978;-77
2022/05/07 10:50:12;;;;;;;2.30;1.10;;;;;;;25.85;24.83;101083.63;110361;1257;23630;-76
2022/05/07 10:52:41;;;;;;;4.00;1.30;;;;;;;25.64;24.40;101081.77;110680;1252;23653;-76
2022/05/07 10:55:17;;;;;;;7.00;1.60;;;;;;;25.29;24.26;101088.84;110933;1253;21968;-79
2022/05/07 10:57:48;;;;;;;4.50;1.40;;;;;;;25.00;24.41;101087.23;110628;1254;22735;-77
2022/05/07 11:00:21;;;;;;;5.00;1.80;;;;;;;24.74;25.00;101086.21;110711;1254;21974;-77
2022/05/07 11:02:57;;;;;;;10.20;1.60;;;;;;;24.58;25.01;101080.48;110375;1257;21968;-77
2022/05/07 11:05:34;;;;;;;9.70;1.90;;;;;;;24.43;25.18;101078.13;110456;1257;21985;-78
2022/05/07 11:08:11;;;;;;;7.30;2.10;;;;;;;24.28;25.50;101078.22;109954;1260;25015;-78
2022/05/07 11:10:42;;;;;;;6.00;2.10;;;;;;;24.14;26.06;101074.70;110174;1257;23034;-79
2022/05/07 11:13:14;;;;;;;5.10;1.70;;;;;;;23.97;26.38;101072.27;110324;1258;22053;-78
2022/05/07 11:15:44;;;;;;;3.10;2.00;;;;;;;23.82;26.76;101068.02;109986;1260;22543;-78
2022/05/07 11:18:15;;;;;;;5.80;2.00;;;;;;;23.70;27.17;101065.76;110072;1258;21979;-79
2022/05/07 11:20:45;;;;;;;6.30;2.30;;;;;;;23.67;27.57;101060.36;110492;1254;21973;-78
2022/05/07 11:23:15;;;;;;;7.40;2.10;;;;;;;23.71;27.37;101061.04;110240;1257;23599;-77
2022/05/07 11:25:51;;;;;;;4.10;1.90;;;;;;;23.76;27.65;101057.75;110272;1258;21988;-78
2022/05/07 11:28:20;;;;;;;2.70;1.40;;;;;;;23.76;27.47;101053.15;110064;1257;22075;-78
2022/05/07 11:30:53;;;;;;;3.70;1.90;;;;;;;23.73;27.27;101050.18;110163;1257;23655;-78
2022/05/07 11:33:25;;;;;;;4.70;2.10;;;;;;;23.78;27.26;101047.70;109489;1263;21984;-78
2022/05/07 11:36:06;;;;;;;2.10;1.30;;;;;;;23.78;27.15;101043.02;109640;1264;22004;-77
2022/05/07 11:38:36;;;;;;;4.60;1.90;;;;;;;23.83;27.30;101040.84;109870;1261;23071;-81
2022/05/07 11:41:12;;;;;;;6.30;1.80;;;;;;;23.82;26.98;101041.58;109211;1267;22837;-78
2022/05/07 11:46:52;;;;;;;4.80;2.20;;;;;;;23.57;27.77;101035.15;109108;1267;22040;-78
2022/05/07 11:49:28;;;;;;;4.90;1.90;;;;;;;23.52;28.34;101032.63;109693;1263;22202;-78
2022/05/07 11:52:10;;;;;;;4.30;2.30;;;;;;;23.52;28.73;101030.03;110218;1257;22282;-78
2022/05/07 11:54:49;;;;;;;2.40;1.50;;;;;;;23.55;28.80;101028.52;110179;1258;21963;-77
2022/05/07 11:57:30;;;;;;;19.00;4.60;;;;;;;23.57;28.83;101029.44;110109;1260;21986;-77
2022/05/07 12:00:25;;;;;;;6.60;3.10;;;;;;;23.59;28.74;101025.70;110337;1257;23668;-79
2022/05/07 12:03:01;;;;;;;5.50;1.90;;;;;;;23.58;28.81;101024.48;110040;1260;21983;-79
2022/05/07 12:05:50;;;;;;;4.60;1.90;;;;;;;23.63;28.94;101019.86;109416;1264;22105;-79